Terminal Aerodrome Forecast
Issued by NWS Quad Cities IA IL

Home | Current Version | Previous Version | Graphics & Text | Print | Product List | Glossary On
Versions: 1 2 3 4 5 6 7 8 9 10 11 12 13 14 15 16 17 18 19 20 21 22 23
000
FTUS43 KDVN 191700
TAFDBQ
TAF
KDBQ 191722Z 1918/2018 28010KT P6SM BKN029
     FM191900 28011KT P6SM BKN035
     FM200100 30003KT P6SM SKC
     FM200800 VRB02KT 4SM BR SKC
      TEMPO 2009/2013 2SM BR
     FM201500 26005KT P6SM SCT050=

USA.gov is the U.S. government's official web portal to all federal, state and local government web resources and services.